Hauptseite
METAR-TAF:

METAR-TAF

Flughäfen :

Heeresflugplatz Niederstetten

Niederstetten, Deutschland

Breite: 49-24N, Länge: 009-58E, Höhe: 468 m

Beobachtung

Neuester Wetterbericht von vor 36 Minuten, um 06:39 UTC
Wind 6 kt aus Nordost
Temperatur 0°C
Luftfeuchtigkeit 100%
Luftdruck 1043 hPa
Sichtweite: 6000 m
Durchbrochene Bewölkung in der Höhe von 4300 ft

METAR: ETHN 200639Z 04006KT 6000 BKN043 00/M00 Q1043 WHT BLU TEMPO WHT

Zeit: 08:15 (07:15 UTC)

Prognose

Neuester Wetterbericht von vor 35 Minuten, um 06:40 UTC
Gültige Prognose vom 20 um 06 UTC bis 20 um 15 UTC
Wind 8 kt aus Nordost
Sichtweite 10 km oder mehr
Durchbrochene Bewölkung in der Höhe von 4000 ft
Zeitweise
vom 20 um 06 UTC bis 20 um 09 UTC
Wind 8 kt aus Nordost
Sichtweite: 5000 m
Durchbrochene Bewölkung in der Höhe von 4000 ft

TAF: ETHN 200640Z 2006/2015 05008KT 9999 NSW BKN040 TEMPO 2006/2009 05008KT 5000 NSW BKN040

Wetterbeobachtungen und Prognosen von mehr als 4000 Flughäfen (METAR und TAF Bericht).

Die verfügbaren Stationen werden durch gelbe und rote Markierungen auf der Karte dargestellt.

Führen Sie die Maus auf sie, um den Namen der Station zu sehen.

Darauf klicken, um die Beobachtung von Wetterbeobachtungen und Prognosen zu sehen.

Um die Karte zu ändern : klicken Sie auf den grünen Tasten mit einem schwarzen Kreuz Zum Vergrößern, auf den grünen Button mit einem Gedankenstrich zu verkleinern, oder auf die grünen Pfeile für benachbarte Karten.


METAR-TAF: